FZAA Airport Informations

Runway Information
Runway 06 Length 13123 ft width 197 ft
Elevation 998 ft Threshold ft Heading 58
Runway 24 Length 13123 ft Width 197 ft
Elevation 998 ft Threshold ft Heading 238
Airport Frequencies
Type A/G Name A/G Frequency 128.1 MHZ
Type APP Name APP Frequency 119.7 MHZ
Type GND Name GND Frequency 121.9 MHZ
Type TWR Name TWR Frequency 118.1 MHZ
Airport Navaids
Type VOR-DME Name Ndjili Frequency 115000 KHZ
Type NDB Name Ndjili Frequency 340 KHZ
Airport Weather Information & NOTAM
ADDS - METARS form results

(2004 UTC 19 August 2022)
Data provider http://aviationweather.gov/metar/data/
 
Forecast for: FZAA (KINSHASA/N'DJILI, CD)
Text: TAF FZAA 191100Z 1912/2018 24008KT 7000 FEW018
Forecast period: 1200 UTC 19 August 2022 to 1800 UTC 20 August 2022
Forecast type: FROM: standard forecast or significant change
Winds: from the WSW (240 degrees) at 9 MPH (8 knots; 4.1 m/s)
Visibility: 4 miles (7 km)
Ceiling: at least 12,000 feet AGL
Clouds: few clouds at 1800 feet AGL
Weather: no significant weather forecast for this period
Text: PROB30
Forecast period: 0500 to 0900 UTC 20 August 2022
Forecast type: TEMPORARY: The following changes expected for less than half the time period
Visibility: 2.49 miles (4.01 km)
Ceiling: 1400 feet AGL
Clouds: broken clouds at 1400 feet AGL
Weather: BR  (mist)